sensor_id;sensor_type;location;lat;lon;timestamp;P1;durP1;ratioP1;P2;durP2;ratioP2
70800;SDS011;59616;52.170;5.386;2023-07-16T00:00:45;9.25;;;1.63;;
70800;SDS011;59616;52.170;5.386;2023-07-16T00:03:12;7.47;;;1.77;;
70800;SDS011;59616;52.170;5.386;2023-07-16T00:05:40;8.35;;;1.50;;
70800;SDS011;59616;52.170;5.386;2023-07-16T00:08:08;6.75;;;1.88;;
70800;SDS011;59616;52.170;5.386;2023-07-16T00:10:35;8.23;;;1.70;;
70800;SDS011;59616;52.170;5.386;2023-07-16T00:13:03;7.63;;;1.67;;
70800;SDS011;59616;52.170;5.386;2023-07-16T00:15:31;6.28;;;1.30;;
70800;SDS011;59616;52.170;5.386;2023-07-16T00:17:58;7.07;;;1.58;;
70800;SDS011;59616;52.170;5.386;2023-07-16T00:20:25;9.27;;;1.90;;
70800;SDS011;59616;52.170;5.386;2023-07-16T00:22:53;13.32;;;1.83;;
70800;SDS011;59616;52.170;5.386;2023-07-16T00:25:21;7.35;;;1.75;;
70800;SDS011;59616;52.170;5.386;2023-07-16T00:27:48;7.53;;;1.58;;
70800;SDS011;59616;52.170;5.386;2023-07-16T00:30:15;6.25;;;1.85;;
70800;SDS011;59616;52.170;5.386;2023-07-16T00:32:42;9.02;;;2.22;;
70800;SDS011;59616;52.170;5.386;2023-07-16T00:35:10;9.68;;;1.88;;
70800;SDS011;59616;52.170;5.386;2023-07-16T00:37:37;12.15;;;2.08;;
70800;SDS011;59616;52.170;5.386;2023-07-16T00:40:06;11.25;;;1.90;;
70800;SDS011;59616;52.170;5.386;2023-07-16T00:42:34;11.10;;;2.10;;
70800;SDS011;59616;52.170;5.386;2023-07-16T00:45:01;8.00;;;1.88;;
70800;SDS011;59616;52.170;5.386;2023-07-16T00:47:29;7.97;;;2.10;;
70800;SDS011;59616;52.170;5.386;2023-07-16T00:49:56;8.20;;;1.90;;
70800;SDS011;59616;52.170;5.386;2023-07-16T00:52:25;9.10;;;2.25;;
70800;SDS011;59616;52.170;5.386;2023-07-16T00:54:54;10.02;;;2.05;;
70800;SDS011;59616;52.170;5.386;2023-07-16T00:57:22;6.20;;;1.88;;
70800;SDS011;59616;52.170;5.386;2023-07-16T00:59:49;9.95;;;2.20;;
70800;SDS011;59616;52.170;5.386;2023-07-16T01:02:16;7.82;;;2.13;;
70800;SDS011;59616;52.170;5.386;2023-07-16T01:04:44;7.22;;;1.63;;
70800;SDS011;59616;52.170;5.386;2023-07-16T01:07:11;10.68;;;1.85;;
70800;SDS011;59616;52.170;5.386;2023-07-16T01:09:43;7.57;;;1.90;;
70800;SDS011;59616;52.170;5.386;2023-07-16T01:12:11;5.68;;;1.70;;
70800;SDS011;59616;52.170;5.386;2023-07-16T01:14:39;9.07;;;1.90;;
70800;SDS011;59616;52.170;5.386;2023-07-16T01:17:07;11.20;;;1.75;;
70800;SDS011;59616;52.170;5.386;2023-07-16T01:19:35;9.82;;;2.03;;
70800;SDS011;59616;52.170;5.386;2023-07-16T01:29:51;10.98;;;2.20;;
70800;SDS011;59616;52.170;5.386;2023-07-16T01:32:20;11.10;;;2.20;;
70800;SDS011;59616;52.170;5.386;2023-07-16T01:34:47;9.45;;;2.60;;
70800;SDS011;59616;52.170;5.386;2023-07-16T01:37:16;10.05;;;2.05;;
70800;SDS011;59616;52.170;5.386;2023-07-16T01:39:43;7.72;;;1.80;;
70800;SDS011;59616;52.170;5.386;2023-07-16T01:42:10;10.00;;;2.45;;
70800;SDS011;59616;52.170;5.386;2023-07-16T01:44:38;8.27;;;1.90;;
70800;SDS011;59616;52.170;5.386;2023-07-16T01:47:28;8.52;;;2.10;;
70800;SDS011;59616;52.170;5.386;2023-07-16T01:49:56;9.25;;;2.55;;
70800;SDS011;59616;52.170;5.386;2023-07-16T01:52:23;7.80;;;2.20;;
70800;SDS011;59616;52.170;5.386;2023-07-16T01:54:51;10.27;;;2.50;;
70800;SDS011;59616;52.170;5.386;2023-07-16T01:57:20;10.75;;;2.63;;
70800;SDS011;59616;52.170;5.386;2023-07-16T01:59:47;8.80;;;2.40;;
70800;SDS011;59616;52.170;5.386;2023-07-16T02:02:15;8.23;;;2.38;;
70800;SDS011;59616;52.170;5.386;2023-07-16T02:04:44;8.65;;;2.42;;
70800;SDS011;59616;52.170;5.386;2023-07-16T02:07:11;10.60;;;2.72;;
70800;SDS011;59616;52.170;5.386;2023-07-16T02:09:38;12.70;;;2.70;;
70800;SDS011;59616;52.170;5.386;2023-07-16T02:12:06;13.35;;;3.28;;
70800;SDS011;59616;52.170;5.386;2023-07-16T02:14:34;7.85;;;2.30;;
70800;SDS011;59616;52.170;5.386;2023-07-16T02:17:01;9.35;;;2.50;;
70800;SDS011;59616;52.170;5.386;2023-07-16T02:19:29;9.02;;;2.50;;
70800;SDS011;59616;52.170;5.386;2023-07-16T02:21:56;13.68;;;3.10;;
70800;SDS011;59616;52.170;5.386;2023-07-16T02:24:23;14.63;;;3.00;;
70800;SDS011;59616;52.170;5.386;2023-07-16T02:26:51;11.38;;;2.40;;
70800;SDS011;59616;52.170;5.386;2023-07-16T02:29:18;13.80;;;2.75;;
70800;SDS011;59616;52.170;5.386;2023-07-16T02:31:45;12.18;;;3.00;;
70800;SDS011;59616;52.170;5.386;2023-07-16T02:34:15;11.27;;;2.70;;
70800;SDS011;59616;52.170;5.386;2023-07-16T02:36:42;13.73;;;2.80;;
70800;SDS011;59616;52.170;5.386;2023-07-16T02:39:09;8.27;;;2.70;;
70800;SDS011;59616;52.170;5.386;2023-07-16T02:41:36;10.52;;;2.80;;
70800;SDS011;59616;52.170;5.386;2023-07-16T02:44:04;13.07;;;3.17;;
70800;SDS011;59616;52.170;5.386;2023-07-16T02:46:32;10.52;;;2.83;;
70800;SDS011;59616;52.170;5.386;2023-07-16T02:49:00;10.50;;;2.58;;
70800;SDS011;59616;52.170;5.386;2023-07-16T02:51:29;9.57;;;2.70;;
70800;SDS011;59616;52.170;5.386;2023-07-16T02:53:56;12.20;;;2.97;;
70800;SDS011;59616;52.170;5.386;2023-07-16T02:56:23;9.63;;;2.60;;
70800;SDS011;59616;52.170;5.386;2023-07-16T02:58:50;14.90;;;3.00;;
70800;SDS011;59616;52.170;5.386;2023-07-16T03:01:17;10.23;;;2.60;;
70800;SDS011;59616;52.170;5.386;2023-07-16T03:03:45;13.07;;;3.08;;
70800;SDS011;59616;52.170;5.386;2023-07-16T03:06:12;9.82;;;2.45;;
70800;SDS011;59616;52.170;5.386;2023-07-16T03:08:40;13.35;;;2.58;;
70800;SDS011;59616;52.170;5.386;2023-07-16T03:11:07;10.10;;;2.90;;
70800;SDS011;59616;52.170;5.386;2023-07-16T03:13:35;10.48;;;2.60;;
70800;SDS011;59616;52.170;5.386;2023-07-16T03:16:03;10.48;;;2.50;;
70800;SDS011;59616;52.170;5.386;2023-07-16T03:18:30;10.77;;;2.58;;
70800;SDS011;59616;52.170;5.386;2023-07-16T03:20:57;10.55;;;2.50;;
70800;SDS011;59616;52.170;5.386;2023-07-16T03:23:25;10.35;;;3.13;;
70800;SDS011;59616;52.170;5.386;2023-07-16T03:25:52;10.10;;;2.58;;
70800;SDS011;59616;52.170;5.386;2023-07-16T03:28:20;13.07;;;2.30;;
70800;SDS011;59616;52.170;5.386;2023-07-16T03:30:48;11.90;;;2.72;;
70800;SDS011;59616;52.170;5.386;2023-07-16T03:33:15;12.82;;;2.92;;
70800;SDS011;59616;52.170;5.386;2023-07-16T03:35:43;8.75;;;2.55;;
70800;SDS011;59616;52.170;5.386;2023-07-16T03:38:11;9.10;;;2.53;;
70800;SDS011;59616;52.170;5.386;2023-07-16T03:40:38;9.68;;;2.65;;
70800;SDS011;59616;52.170;5.386;2023-07-16T03:43:06;11.20;;;2.70;;
70800;SDS011;59616;52.170;5.386;2023-07-16T03:45:34;12.20;;;2.78;;
70800;SDS011;59616;52.170;5.386;2023-07-16T03:48:02;9.32;;;2.42;;
70800;SDS011;59616;52.170;5.386;2023-07-16T03:50:29;7.85;;;2.20;;
70800;SDS011;59616;52.170;5.386;2023-07-16T03:52:56;8.55;;;2.58;;
70800;SDS011;59616;52.170;5.386;2023-07-16T03:55:24;11.60;;;2.50;;
70800;SDS011;59616;52.170;5.386;2023-07-16T03:57:51;9.60;;;2.55;;
70800;SDS011;59616;52.170;5.386;2023-07-16T04:00:19;12.95;;;2.63;;
70800;SDS011;59616;52.170;5.386;2023-07-16T04:02:49;8.52;;;2.63;;
70800;SDS011;59616;52.170;5.386;2023-07-16T04:05:17;9.05;;;2.55;;
70800;SDS011;59616;52.170;5.386;2023-07-16T04:07:49;10.38;;;2.60;;
70800;SDS011;59616;52.170;5.386;2023-07-16T04:10:16;12.07;;;2.63;;
70800;SDS011;59616;52.170;5.386;2023-07-16T04:12:43;10.68;;;2.60;;
70800;SDS011;59616;52.170;5.386;2023-07-16T04:15:11;7.72;;;2.40;;
70800;SDS011;59616;52.170;5.386;2023-07-16T04:17:38;9.60;;;2.83;;
70800;SDS011;59616;52.170;5.386;2023-07-16T04:20:05;11.52;;;2.80;;
70800;SDS011;59616;52.170;5.386;2023-07-16T04:22:33;10.20;;;3.05;;
70800;SDS011;59616;52.170;5.386;2023-07-16T04:25:01;11.27;;;2.85;;
70800;SDS011;59616;52.170;5.386;2023-07-16T04:27:30;7.57;;;2.70;;
70800;SDS011;59616;52.170;5.386;2023-07-16T04:29:57;12.77;;;2.95;;
70800;SDS011;59616;52.170;5.386;2023-07-16T04:32:24;9.10;;;2.88;;
70800;SDS011;59616;52.170;5.386;2023-07-16T04:34:52;8.98;;;2.78;;
70800;SDS011;59616;52.170;5.386;2023-07-16T04:37:19;11.05;;;2.67;;
70800;SDS011;59616;52.170;5.386;2023-07-16T04:39:47;11.35;;;2.97;;
70800;SDS011;59616;52.170;5.386;2023-07-16T04:42:14;12.68;;;3.00;;
70800;SDS011;59616;52.170;5.386;2023-07-16T04:44:43;12.20;;;3.22;;
70800;SDS011;59616;52.170;5.386;2023-07-16T04:47:10;10.65;;;3.08;;
70800;SDS011;59616;52.170;5.386;2023-07-16T04:49:37;13.18;;;3.10;;
70800;SDS011;59616;52.170;5.386;2023-07-16T04:52:05;10.77;;;3.13;;
70800;SDS011;59616;52.170;5.386;2023-07-16T04:54:37;11.02;;;3.05;;
70800;SDS011;59616;52.170;5.386;2023-07-16T04:57:08;10.23;;;3.17;;
70800;SDS011;59616;52.170;5.386;2023-07-16T04:59:35;12.68;;;3.00;;
70800;SDS011;59616;52.170;5.386;2023-07-16T05:02:04;13.88;;;3.00;;
70800;SDS011;59616;52.170;5.386;2023-07-16T05:04:33;8.52;;;3.13;;
70800;SDS011;59616;52.170;5.386;2023-07-16T05:07:01;10.90;;;3.00;;
70800;SDS011;59616;52.170;5.386;2023-07-16T05:09:29;10.10;;;3.10;;
70800;SDS011;59616;52.170;5.386;2023-07-16T05:11:56;11.43;;;3.13;;
70800;SDS011;59616;52.170;5.386;2023-07-16T05:14:26;10.77;;;3.20;;
70800;SDS011;59616;52.170;5.386;2023-07-16T05:16:53;15.68;;;3.40;;
70800;SDS011;59616;52.170;5.386;2023-07-16T05:19:21;11.63;;;3.20;;
70800;SDS011;59616;52.170;5.386;2023-07-16T05:21:48;10.30;;;3.15;;
70800;SDS011;59616;52.170;5.386;2023-07-16T05:24:16;13.77;;;3.33;;
70800;SDS011;59616;52.170;5.386;2023-07-16T05:26:43;10.13;;;3.13;;
70800;SDS011;59616;52.170;5.386;2023-07-16T05:29:10;11.35;;;3.53;;
70800;SDS011;59616;52.170;5.386;2023-07-16T05:31:37;11.57;;;3.30;;
70800;SDS011;59616;52.170;5.386;2023-07-16T05:34:05;10.27;;;3.38;;
70800;SDS011;59616;52.170;5.386;2023-07-16T05:36:32;12.27;;;3.60;;
70800;SDS011;59616;52.170;5.386;2023-07-16T05:38:59;9.98;;;3.38;;
70800;SDS011;59616;52.170;5.386;2023-07-16T05:41:27;10.27;;;3.50;;
70800;SDS011;59616;52.170;5.386;2023-07-16T05:43:54;11.00;;;3.85;;
70800;SDS011;59616;52.170;5.386;2023-07-16T05:46:21;11.90;;;3.30;;
70800;SDS011;59616;52.170;5.386;2023-07-16T05:48:49;9.82;;;3.45;;
70800;SDS011;59616;52.170;5.386;2023-07-16T05:51:16;9.38;;;3.45;;
70800;SDS011;59616;52.170;5.386;2023-07-16T05:53:43;16.10;;;3.20;;
70800;SDS011;59616;52.170;5.386;2023-07-16T05:56:11;12.15;;;3.50;;
70800;SDS011;59616;52.170;5.386;2023-07-16T05:58:39;9.52;;;3.33;;
70800;SDS011;59616;52.170;5.386;2023-07-16T06:01:08;14.65;;;3.83;;
70800;SDS011;59616;52.170;5.386;2023-07-16T06:03:35;11.75;;;3.40;;
70800;SDS011;59616;52.170;5.386;2023-07-16T06:06:03;11.93;;;3.70;;
70800;SDS011;59616;52.170;5.386;2023-07-16T06:08:30;11.38;;;3.95;;
70800;SDS011;59616;52.170;5.386;2023-07-16T06:10:57;13.65;;;3.60;;
70800;SDS011;59616;52.170;5.386;2023-07-16T06:13:25;15.82;;;4.38;;
70800;SDS011;59616;52.170;5.386;2023-07-16T06:15:52;13.70;;;3.85;;
70800;SDS011;59616;52.170;5.386;2023-07-16T06:18:19;14.20;;;3.83;;
70800;SDS011;59616;52.170;5.386;2023-07-16T06:20:47;11.82;;;3.70;;
70800;SDS011;59616;52.170;5.386;2023-07-16T06:23:15;12.07;;;3.70;;
70800;SDS011;59616;52.170;5.386;2023-07-16T06:25:43;20.52;;;4.43;;
70800;SDS011;59616;52.170;5.386;2023-07-16T06:28:10;13.82;;;3.80;;
70800;SDS011;59616;52.170;5.386;2023-07-16T06:30:38;11.60;;;3.50;;
70800;SDS011;59616;52.170;5.386;2023-07-16T06:33:05;12.48;;;3.58;;
70800;SDS011;59616;52.170;5.386;2023-07-16T06:35:33;11.32;;;3.50;;
70800;SDS011;59616;52.170;5.386;2023-07-16T06:38:00;14.20;;;3.60;;
70800;SDS011;59616;52.170;5.386;2023-07-16T06:40:28;12.35;;;3.42;;
70800;SDS011;59616;52.170;5.386;2023-07-16T06:42:55;13.13;;;3.97;;
70800;SDS011;59616;52.170;5.386;2023-07-16T06:45:22;13.02;;;3.55;;
70800;SDS011;59616;52.170;5.386;2023-07-16T06:47:49;14.57;;;3.63;;
70800;SDS011;59616;52.170;5.386;2023-07-16T06:50:17;13.65;;;3.50;;
70800;SDS011;59616;52.170;5.386;2023-07-16T06:52:44;13.35;;;4.20;;
70800;SDS011;59616;52.170;5.386;2023-07-16T06:55:12;10.63;;;3.15;;
70800;SDS011;59616;52.170;5.386;2023-07-16T06:57:39;15.90;;;3.38;;
70800;SDS011;59616;52.170;5.386;2023-07-16T07:00:06;12.13;;;3.25;;
70800;SDS011;59616;52.170;5.386;2023-07-16T07:02:37;11.20;;;3.60;;
70800;SDS011;59616;52.170;5.386;2023-07-16T07:05:04;12.63;;;3.83;;
70800;SDS011;59616;52.170;5.386;2023-07-16T07:07:32;12.55;;;3.58;;
70800;SDS011;59616;52.170;5.386;2023-07-16T07:09:59;13.18;;;3.75;;
70800;SDS011;59616;52.170;5.386;2023-07-16T07:12:26;14.55;;;4.10;;
70800;SDS011;59616;52.170;5.386;2023-07-16T07:14:54;11.13;;;3.88;;
70800;SDS011;59616;52.170;5.386;2023-07-16T07:17:21;13.40;;;3.72;;
70800;SDS011;59616;52.170;5.386;2023-07-16T07:19:48;10.38;;;3.15;;
70800;SDS011;59616;52.170;5.386;2023-07-16T07:22:16;8.70;;;3.42;;
70800;SDS011;59616;52.170;5.386;2023-07-16T07:24:48;12.52;;;3.72;;
70800;SDS011;59616;52.170;5.386;2023-07-16T07:27:16;12.20;;;3.47;;
70800;SDS011;59616;52.170;5.386;2023-07-16T07:29:43;10.57;;;3.35;;
70800;SDS011;59616;52.170;5.386;2023-07-16T07:32:12;12.27;;;3.65;;
70800;SDS011;59616;52.170;5.386;2023-07-16T07:34:40;13.25;;;4.10;;
70800;SDS011;59616;52.170;5.386;2023-07-16T07:37:07;11.13;;;3.67;;
70800;SDS011;59616;52.170;5.386;2023-07-16T07:39:35;12.63;;;3.60;;
70800;SDS011;59616;52.170;5.386;2023-07-16T07:42:02;11.68;;;3.60;;
70800;SDS011;59616;52.170;5.386;2023-07-16T07:44:30;14.20;;;3.92;;
70800;SDS011;59616;52.170;5.386;2023-07-16T07:46:57;12.50;;;4.03;;
70800;SDS011;59616;52.170;5.386;2023-07-16T07:49:24;12.85;;;4.28;;
70800;SDS011;59616;52.170;5.386;2023-07-16T07:51:51;12.90;;;3.90;;
70800;SDS011;59616;52.170;5.386;2023-07-16T07:54:19;10.73;;;4.00;;
70800;SDS011;59616;52.170;5.386;2023-07-16T07:56:46;12.45;;;4.35;;
70800;SDS011;59616;52.170;5.386;2023-07-16T07:59:13;12.40;;;3.80;;
70800;SDS011;59616;52.170;5.386;2023-07-16T08:01:41;12.13;;;3.60;;
70800;SDS011;59616;52.170;5.386;2023-07-16T08:04:08;15.10;;;3.92;;
70800;SDS011;59616;52.170;5.386;2023-07-16T08:06:35;11.30;;;3.40;;
70800;SDS011;59616;52.170;5.386;2023-07-16T08:09:03;10.38;;;3.47;;
70800;SDS011;59616;52.170;5.386;2023-07-16T08:11:31;13.35;;;3.60;;
70800;SDS011;59616;52.170;5.386;2023-07-16T08:13:58;14.02;;;3.40;;
70800;SDS011;59616;52.170;5.386;2023-07-16T08:16:25;11.57;;;3.60;;
70800;SDS011;59616;52.170;5.386;2023-07-16T08:18:52;11.45;;;3.80;;
70800;SDS011;59616;52.170;5.386;2023-07-16T08:21:20;12.23;;;3.55;;
70800;SDS011;59616;52.170;5.386;2023-07-16T08:23:48;12.55;;;3.83;;
70800;SDS011;59616;52.170;5.386;2023-07-16T08:26:16;11.68;;;3.65;;
70800;SDS011;59616;52.170;5.386;2023-07-16T08:28:43;11.45;;;3.58;;
70800;SDS011;59616;52.170;5.386;2023-07-16T08:31:11;12.30;;;3.80;;
70800;SDS011;59616;52.170;5.386;2023-07-16T08:33:41;12.95;;;3.85;;
70800;SDS011;59616;52.170;5.386;2023-07-16T08:36:10;13.07;;;3.88;;
70800;SDS011;59616;52.170;5.386;2023-07-16T08:38:37;15.77;;;3.75;;
70800;SDS011;59616;52.170;5.386;2023-07-16T08:41:05;13.50;;;3.92;;
70800;SDS011;59616;52.170;5.386;2023-07-16T08:43:32;15.90;;;4.13;;
70800;SDS011;59616;52.170;5.386;2023-07-16T08:46:01;14.27;;;4.32;;
70800;SDS011;59616;52.170;5.386;2023-07-16T08:48:28;11.23;;;4.00;;
70800;SDS011;59616;52.170;5.386;2023-07-16T08:50:57;15.43;;;4.57;;
70800;SDS011;59616;52.170;5.386;2023-07-16T08:53:27;11.45;;;3.65;;
70800;SDS011;59616;52.170;5.386;2023-07-16T08:55:55;14.07;;;3.92;;
70800;SDS011;59616;52.170;5.386;2023-07-16T08:58:24;10.70;;;4.38;;
70800;SDS011;59616;52.170;5.386;2023-07-16T09:00:51;12.07;;;4.18;;
70800;SDS011;59616;52.170;5.386;2023-07-16T09:03:19;14.32;;;4.22;;
70800;SDS011;59616;52.170;5.386;2023-07-16T09:05:46;13.40;;;4.32;;
70800;SDS011;59616;52.170;5.386;2023-07-16T09:08:14;11.27;;;4.07;;
70800;SDS011;59616;52.170;5.386;2023-07-16T09:10:41;10.05;;;3.70;;
70800;SDS011;59616;52.170;5.386;2023-07-16T09:13:09;13.77;;;4.28;;
70800;SDS011;59616;52.170;5.386;2023-07-16T09:15:36;15.38;;;3.95;;
70800;SDS011;59616;52.170;5.386;2023-07-16T09:18:05;12.15;;;3.85;;
70800;SDS011;59616;52.170;5.386;2023-07-16T09:20:32;12.88;;;4.03;;
70800;SDS011;59616;52.170;5.386;2023-07-16T09:23:00;15.93;;;4.50;;
70800;SDS011;59616;52.170;5.386;2023-07-16T09:25:28;13.07;;;3.80;;
70800;SDS011;59616;52.170;5.386;2023-07-16T09:27:57;12.27;;;3.92;;
70800;SDS011;59616;52.170;5.386;2023-07-16T09:30:24;12.93;;;4.10;;
70800;SDS011;59616;52.170;5.386;2023-07-16T09:32:51;9.68;;;3.90;;
70800;SDS011;59616;52.170;5.386;2023-07-16T09:35:19;11.00;;;3.65;;
70800;SDS011;59616;52.170;5.386;2023-07-16T09:37:46;13.73;;;4.03;;
70800;SDS011;59616;52.170;5.386;2023-07-16T09:40:13;11.45;;;3.60;;
70800;SDS011;59616;52.170;5.386;2023-07-16T09:42:41;11.27;;;3.10;;
70800;SDS011;59616;52.170;5.386;2023-07-16T09:45:16;12.95;;;3.63;;
70800;SDS011;59616;52.170;5.386;2023-07-16T09:47:44;10.73;;;3.00;;
70800;SDS011;59616;52.170;5.386;2023-07-16T09:50:11;11.40;;;3.70;;
70800;SDS011;59616;52.170;5.386;2023-07-16T09:52:38;11.88;;;3.95;;
70800;SDS011;59616;52.170;5.386;2023-07-16T09:55:06;12.20;;;4.07;;
70800;SDS011;59616;52.170;5.386;2023-07-16T09:57:36;11.20;;;3.80;;
70800;SDS011;59616;52.170;5.386;2023-07-16T10:00:08;10.93;;;3.70;;
70800;SDS011;59616;52.170;5.386;2023-07-16T10:02:39;9.18;;;3.60;;
70800;SDS011;59616;52.170;5.386;2023-07-16T10:07:40;10.95;;;3.83;;
70800;SDS011;59616;52.170;5.386;2023-07-16T10:10:08;14.13;;;4.38;;
70800;SDS011;59616;52.170;5.386;2023-07-16T10:12:37;10.98;;;4.10;;
70800;SDS011;59616;52.170;5.386;2023-07-16T10:15:04;10.43;;;3.53;;
70800;SDS011;59616;52.170;5.386;2023-07-16T10:17:32;11.75;;;3.72;;
70800;SDS011;59616;52.170;5.386;2023-07-16T10:20:09;12.10;;;3.88;;
70800;SDS011;59616;52.170;5.386;2023-07-16T10:22:37;11.23;;;4.10;;
70800;SDS011;59616;52.170;5.386;2023-07-16T10:25:09;12.05;;;3.80;;
70800;SDS011;59616;52.170;5.386;2023-07-16T10:27:46;13.63;;;3.90;;
70800;SDS011;59616;52.170;5.386;2023-07-16T10:30:14;12.07;;;4.05;;
70800;SDS011;59616;52.170;5.386;2023-07-16T10:32:41;12.23;;;3.45;;
70800;SDS011;59616;52.170;5.386;2023-07-16T10:35:09;12.43;;;4.30;;
70800;SDS011;59616;52.170;5.386;2023-07-16T10:37:38;13.73;;;3.83;;
70800;SDS011;59616;52.170;5.386;2023-07-16T10:40:05;12.40;;;3.90;;
70800;SDS011;59616;52.170;5.386;2023-07-16T10:42:36;11.55;;;3.58;;
70800;SDS011;59616;52.170;5.386;2023-07-16T10:45:04;13.07;;;3.80;;
70800;SDS011;59616;52.170;5.386;2023-07-16T10:47:32;11.32;;;3.47;;
70800;SDS011;59616;52.170;5.386;2023-07-16T10:50:00;11.90;;;3.95;;
70800;SDS011;59616;52.170;5.386;2023-07-16T10:52:27;13.27;;;3.85;;
70800;SDS011;59616;52.170;5.386;2023-07-16T10:54:55;12.00;;;3.80;;
70800;SDS011;59616;52.170;5.386;2023-07-16T10:57:24;12.10;;;3.22;;
70800;SDS011;59616;52.170;5.386;2023-07-16T10:59:52;9.25;;;3.33;;
70800;SDS011;59616;52.170;5.386;2023-07-16T11:02:21;11.85;;;3.65;;
70800;SDS011;59616;52.170;5.386;2023-07-16T11:04:48;13.75;;;3.58;;
70800;SDS011;59616;52.170;5.386;2023-07-16T11:07:16;11.52;;;3.53;;
70800;SDS011;59616;52.170;5.386;2023-07-16T11:09:51;11.90;;;3.42;;
70800;SDS011;59616;52.170;5.386;2023-07-16T11:12:20;8.63;;;2.60;;
70800;SDS011;59616;52.170;5.386;2023-07-16T11:14:48;9.90;;;2.92;;
70800;SDS011;59616;52.170;5.386;2023-07-16T11:17:15;12.43;;;3.17;;
70800;SDS011;59616;52.170;5.386;2023-07-16T11:19:46;11.60;;;2.95;;
70800;SDS011;59616;52.170;5.386;2023-07-16T11:22:14;7.90;;;2.70;;
70800;SDS011;59616;52.170;5.386;2023-07-16T11:24:45;11.27;;;2.65;;
70800;SDS011;59616;52.170;5.386;2023-07-16T11:27:14;10.52;;;2.67;;
70800;SDS011;59616;52.170;5.386;2023-07-16T11:29:45;9.30;;;3.03;;
70800;SDS011;59616;52.170;5.386;2023-07-16T11:32:13;8.57;;;2.95;;
70800;SDS011;59616;52.170;5.386;2023-07-16T11:34:53;10.57;;;2.78;;
70800;SDS011;59616;52.170;5.386;2023-07-16T11:37:21;10.05;;;3.22;;
70800;SDS011;59616;52.170;5.386;2023-07-16T11:39:48;9.10;;;3.30;;
70800;SDS011;59616;52.170;5.386;2023-07-16T11:42:23;8.85;;;2.92;;
70800;SDS011;59616;52.170;5.386;2023-07-16T11:44:50;8.15;;;3.08;;
70800;SDS011;59616;52.170;5.386;2023-07-16T11:47:18;12.25;;;3.28;;
70800;SDS011;59616;52.170;5.386;2023-07-16T11:49:45;9.43;;;3.10;;
70800;SDS011;59616;52.170;5.386;2023-07-16T11:52:12;10.23;;;3.17;;
70800;SDS011;59616;52.170;5.386;2023-07-16T11:54:40;10.82;;;2.80;;
70800;SDS011;59616;52.170;5.386;2023-07-16T11:57:07;10.18;;;2.70;;
70800;SDS011;59616;52.170;5.386;2023-07-16T11:59:34;9.93;;;2.88;;
70800;SDS011;59616;52.170;5.386;2023-07-16T12:02:02;9.68;;;2.47;;
70800;SDS011;59616;52.170;5.386;2023-07-16T12:04:29;8.88;;;2.20;;
70800;SDS011;59616;52.170;5.386;2023-07-16T12:06:56;8.05;;;1.95;;
70800;SDS011;59616;52.170;5.386;2023-07-16T12:09:23;7.07;;;1.83;;
70800;SDS011;59616;52.170;5.386;2023-07-16T12:11:51;8.77;;;1.90;;
70800;SDS011;59616;52.170;5.386;2023-07-16T12:14:18;7.57;;;1.50;;
70800;SDS011;59616;52.170;5.386;2023-07-16T12:16:45;9.90;;;2.05;;
70800;SDS011;59616;52.170;5.386;2023-07-16T12:19:13;7.25;;;1.45;;
70800;SDS011;59616;52.170;5.386;2023-07-16T12:21:40;6.07;;;1.65;;
70800;SDS011;59616;52.170;5.386;2023-07-16T12:24:08;7.47;;;1.85;;
70800;SDS011;59616;52.170;5.386;2023-07-16T12:26:36;6.68;;;1.50;;
70800;SDS011;59616;52.170;5.386;2023-07-16T12:29:03;6.57;;;1.58;;
70800;SDS011;59616;52.170;5.386;2023-07-16T12:31:30;6.13;;;1.80;;
70800;SDS011;59616;52.170;5.386;2023-07-16T12:33:58;6.20;;;1.70;;
70800;SDS011;59616;52.170;5.386;2023-07-16T12:36:26;5.72;;;1.58;;
70800;SDS011;59616;52.170;5.386;2023-07-16T12:38:53;5.35;;;1.50;;
70800;SDS011;59616;52.170;5.386;2023-07-16T12:41:21;6.63;;;1.65;;
70800;SDS011;59616;52.170;5.386;2023-07-16T12:43:48;4.50;;;1.58;;
70800;SDS011;59616;52.170;5.386;2023-07-16T12:46:15;5.35;;;1.50;;
70800;SDS011;59616;52.170;5.386;2023-07-16T12:48:43;7.72;;;1.83;;
70800;SDS011;59616;52.170;5.386;2023-07-16T12:51:10;9.18;;;1.83;;
70800;SDS011;59616;52.170;5.386;2023-07-16T12:53:38;6.10;;;1.67;;
70800;SDS011;59616;52.170;5.386;2023-07-16T12:56:06;7.03;;;1.60;;
70800;SDS011;59616;52.170;5.386;2023-07-16T12:58:33;4.85;;;1.48;;
70800;SDS011;59616;52.170;5.386;2023-07-16T13:01:00;6.97;;;1.50;;
70800;SDS011;59616;52.170;5.386;2023-07-16T13:03:27;6.85;;;1.80;;
70800;SDS011;59616;52.170;5.386;2023-07-16T13:05:55;9.05;;;1.75;;
70800;SDS011;59616;52.170;5.386;2023-07-16T13:08:22;5.68;;;1.52;;
70800;SDS011;59616;52.170;5.386;2023-07-16T13:10:49;7.47;;;1.63;;
70800;SDS011;59616;52.170;5.386;2023-07-16T13:13:17;6.65;;;1.25;;
70800;SDS011;59616;52.170;5.386;2023-07-16T13:15:44;6.72;;;1.63;;
70800;SDS011;59616;52.170;5.386;2023-07-16T13:18:11;6.70;;;1.42;;
70800;SDS011;59616;52.170;5.386;2023-07-16T13:20:39;14.90;;;1.77;;
70800;SDS011;59616;52.170;5.386;2023-07-16T13:23:06;7.03;;;1.67;;
70800;SDS011;59616;52.170;5.386;2023-07-16T13:25:35;8.55;;;1.55;;
70800;SDS011;59616;52.170;5.386;2023-07-16T13:28:05;3.65;;;1.00;;
70800;SDS011;59616;52.170;5.386;2023-07-16T13:30:32;7.32;;;1.42;;
70800;SDS011;59616;52.170;5.386;2023-07-16T13:33:00;6.38;;;1.40;;
70800;SDS011;59616;52.170;5.386;2023-07-16T13:35:27;6.65;;;1.52;;
70800;SDS011;59616;52.170;5.386;2023-07-16T13:37:55;5.50;;;1.40;;
70800;SDS011;59616;52.170;5.386;2023-07-16T13:40:22;7.75;;;1.48;;
70800;SDS011;59616;52.170;5.386;2023-07-16T13:42:49;6.25;;;1.55;;
70800;SDS011;59616;52.170;5.386;2023-07-16T13:45:16;4.60;;;1.27;;
70800;SDS011;59616;52.170;5.386;2023-07-16T13:47:44;3.38;;;1.38;;
70800;SDS011;59616;52.170;5.386;2023-07-16T13:50:11;5.57;;;2.05;;
70800;SDS011;59616;52.170;5.386;2023-07-16T13:52:38;8.15;;;1.27;;
70800;SDS011;59616;52.170;5.386;2023-07-16T13:55:06;6.78;;;1.40;;
70800;SDS011;59616;52.170;5.386;2023-07-16T13:57:33;6.13;;;1.30;;
70800;SDS011;59616;52.170;5.386;2023-07-16T14:00:00;5.70;;;1.20;;
70800;SDS011;59616;52.170;5.386;2023-07-16T14:02:29;5.68;;;1.23;;
70800;SDS011;59616;52.170;5.386;2023-07-16T14:04:57;4.45;;;1.05;;
70800;SDS011;59616;52.170;5.386;2023-07-16T14:07:24;6.00;;;1.30;;
70800;SDS011;59616;52.170;5.386;2023-07-16T14:09:51;3.42;;;1.10;;
70800;SDS011;59616;52.170;5.386;2023-07-16T14:12:19;5.97;;;1.08;;
70800;SDS011;59616;52.170;5.386;2023-07-16T14:14:46;4.22;;;1.13;;
70800;SDS011;59616;52.170;5.386;2023-07-16T14:17:13;6.25;;;1.27;;
70800;SDS011;59616;52.170;5.386;2023-07-16T14:19:41;7.07;;;1.30;;
70800;SDS011;59616;52.170;5.386;2023-07-16T14:22:08;5.03;;;1.20;;
70800;SDS011;59616;52.170;5.386;2023-07-16T14:24:39;5.53;;;1.15;;
70800;SDS011;59616;52.170;5.386;2023-07-16T14:27:06;8.50;;;1.67;;
70800;SDS011;59616;52.170;5.386;2023-07-16T14:29:34;6.53;;;1.25;;
70800;SDS011;59616;52.170;5.386;2023-07-16T14:32:13;3.40;;;1.10;;
70800;SDS011;59616;52.170;5.386;2023-07-16T14:34:40;5.57;;;1.35;;
70800;SDS011;59616;52.170;5.386;2023-07-16T14:37:07;4.95;;;1.20;;
70800;SDS011;59616;52.170;5.386;2023-07-16T14:39:35;7.03;;;1.17;;
70800;SDS011;59616;52.170;5.386;2023-07-16T14:42:02;6.32;;;1.33;;
70800;SDS011;59616;52.170;5.386;2023-07-16T14:44:30;9.38;;;1.70;;
70800;SDS011;59616;52.170;5.386;2023-07-16T14:46:58;6.63;;;1.23;;
70800;SDS011;59616;52.170;5.386;2023-07-16T14:49:25;5.00;;;1.10;;
70800;SDS011;59616;52.170;5.386;2023-07-16T14:51:52;9.75;;;1.55;;
70800;SDS011;59616;52.170;5.386;2023-07-16T14:54:20;6.20;;;1.23;;